Time;durP1;ratioP1;P1;durP2;ratioP2;P2;SDS_P1;SDS_P2;PMS_P1;PMS_P2;Temp;Humidity;BMP_temperature;BMP_pressure;BME280_temperature;BME280_humidity;BME280_pressure;Samples;Min_cycle;Max_cycle;Signal;HPM_P1;HPM_P2
2024/02/20 00:00:12;;;;;;;;;;;8.50;99.90;;;;;;4992712;28;19968;-80
2024/02/20 00:03:04;;;;;;;;;;;8.50;99.90;;;;;;4973667;28;19929;-81
2024/02/20 00:08:23;;;;;;;;;;;8.50;99.90;;;;;;5201215;23;19926;-80
2024/02/20 00:11:01;;;;;;;;;;;8.50;99.90;;;;;;5018564;28;20060;-79
2024/02/20 00:13:42;;;;;;;;;;;;;;;;;;;;;
2024/02/20 00:16:09;;;;;;;;;;;8.60;99.90;;;;;;4989801;28;19920;-79
2024/02/20 00:18:37;;;;;;;;;;;8.50;99.90;;;;;;4973380;28;19968;-81
2024/02/20 00:21:07;;;;;;;;;;;8.50;99.90;;;;;;4989556;28;19914;-80
2024/02/20 00:23:38;;;;;;;;;;;8.50;99.90;;;;;;5005494;28;19914;-79
2024/02/20 00:26:04;;;;;;;;;;;8.50;99.90;;;;;;4989092;28;19922;-80
2024/02/20 00:28:35;;;;;;;;;;;8.40;99.90;;;;;;5006775;28;19917;-80
2024/02/20 00:31:01;;;;;;;;;;;8.40;99.90;;;;;;5005405;28;19917;-80
2024/02/20 00:33:29;;;;;;;;;;;8.40;99.90;;;;;;4972908;28;19918;-80
2024/02/20 00:35:59;;;;;;;;;;;8.40;99.90;;;;;;4974747;28;19972;-80
2024/02/20 00:38:31;;;;;;;;;;;8.40;99.90;;;;;;4978389;28;19909;-80
2024/02/20 00:41:00;;;;;;;;;;;8.30;99.90;;;;;;4970839;28;19913;-78
2024/02/20 00:43:26;;;;;;;;;;;8.30;99.90;;;;;;4987247;28;20319;-79
2024/02/20 00:46:00;;;;;;;;;;;8.40;99.90;;;;;;4971393;28;19917;-80
2024/02/20 00:48:26;;;;;;;;;;;8.30;99.90;;;;;;4955044;28;20425;-79
2024/02/20 00:51:01;;;;;;;;;;;8.40;99.90;;;;;;4988722;28;19928;-79
2024/02/20 00:53:27;;;;;;;;;;;8.30;99.90;;;;;;4987968;28;20330;-79
2024/02/20 00:55:53;;;;;;;;;;;8.40;99.90;;;;;;5004669;28;19926;-80
2024/02/20 00:58:25;;;;;;;;;;;8.30;99.90;;;;;;5003995;28;19913;-80
2024/02/20 01:00:53;;;;;;;;;;;8.40;99.90;;;;;;4967725;28;20199;-80
2024/02/20 01:03:19;;;;;;;;;;;8.30;99.90;;;;;;4984680;28;20008;-79
2024/02/20 01:05:45;;;;;;;;;;;8.30;99.90;;;;;;4987751;28;19921;-80
2024/02/20 01:08:13;;;;;;;;;;;8.30;99.90;;;;;;4986599;28;19929;-80
2024/02/20 01:10:56;;;;;;;;;;;8.20;99.90;;;;;;4984158;28;19997;-79
2024/02/20 01:13:22;;;;;;;;;;;8.30;99.90;;;;;;4986922;28;20051;-79
2024/02/20 01:15:51;;;;;;;;;;;8.20;99.90;;;;;;5006084;28;20234;-80
2024/02/20 01:18:17;;;;;;;;;;;8.30;99.90;;;;;;4970543;28;19924;-80
2024/02/20 01:20:43;;;;;;;;;;;8.20;99.90;;;;;;4953662;28;19917;-80
2024/02/20 01:23:11;;;;;;;;;;;8.20;99.90;;;;;;4985254;28;19913;-80
2024/02/20 01:25:41;;;;;;;;;;;8.20;99.90;;;;;;4989285;28;19923;-80
2024/02/20 01:28:10;;;;;;;;;;;8.20;99.90;;;;;;4977647;28;19914;-80
2024/02/20 01:30:42;;;;;;;;;;;8.20;99.90;;;;;;4965567;28;19918;-80
2024/02/20 01:33:08;;;;;;;;;;;8.20;99.90;;;;;;4954829;28;19933;-80
2024/02/20 01:35:39;;;;;;;;;;;8.10;99.90;;;;;;4971011;28;20534;-80
2024/02/20 01:38:08;;;;;;;;;;;8.10;99.90;;;;;;4973917;28;19932;-79
2024/02/20 01:40:37;;;;;;;;;;;8.10;99.90;;;;;;4971787;28;20372;-79
2024/02/20 01:43:04;;;;;;;;;;;8.10;99.90;;;;;;4969470;28;20312;-80
2024/02/20 01:45:30;;;;;;;;;;;8.10;99.90;;;;;;4972131;28;19917;-79
2024/02/20 01:47:58;;;;;;;;;;;8.10;99.90;;;;;;4974070;28;19914;-80
2024/02/20 01:50:25;;;;;;;;;;;8.00;99.90;;;;;;4977557;28;19914;-79
2024/02/20 01:52:53;;;;;;;;;;;8.10;99.90;;;;;;4974642;28;19945;-80
2024/02/20 01:55:21;;;;;;;;;;;7.90;99.90;;;;;;4973108;28;19917;-79
2024/02/20 01:57:53;;;;;;;;;;;7.90;99.90;;;;;;4972758;28;19918;-80
2024/02/20 02:00:21;;;;;;;;;;;8.00;99.90;;;;;;4986859;28;19914;-80
2024/02/20 02:02:47;;;;;;;;;;;7.90;99.90;;;;;;4952236;28;19913;-78
2024/02/20 02:05:14;;;;;;;;;;;7.90;99.90;;;;;;4987236;28;19971;-80
2024/02/20 02:07:44;;;;;;;;;;;7.90;99.90;;;;;;4975943;28;19921;-79
2024/02/20 02:10:10;;;;;;;;;;;7.90;99.90;;;;;;4982386;28;19946;-79
2024/02/20 02:12:36;;;;;;;;;;;7.90;99.90;;;;;;4967721;28;19918;-81
2024/02/20 02:15:08;;;;;;;;;;;7.90;99.90;;;;;;4969568;28;19952;-80
2024/02/20 02:17:34;;;;;;;;;;;7.90;99.90;;;;;;4968954;28;19920;-79
2024/02/20 02:20:00;;;;;;;;;;;7.90;99.90;;;;;;4968962;28;19914;-80
2024/02/20 02:22:36;;;;;;;;;;;7.80;99.90;;;;;;4954615;28;19913;-80
2024/02/20 02:25:07;;;;;;;;;;;7.80;99.90;;;;;;4955782;28;19924;-81
2024/02/20 02:27:37;;;;;;;;;;;7.90;99.90;;;;;;4985077;28;19921;-81
2024/02/20 02:30:05;;;;;;;;;;;7.90;99.90;;;;;;4951689;28;20274;-80
2024/02/20 02:32:32;;;;;;;;;;;7.90;99.90;;;;;;4962688;28;20286;-80
2024/02/20 02:34:59;;;;;;;;;;;7.90;99.90;;;;;;4935717;28;19925;-80
2024/02/20 02:37:31;;;;;;;;;;;7.80;99.90;;;;;;4932433;28;19949;-80
2024/02/20 02:40:01;;;;;;;;;;;7.90;99.90;;;;;;4956722;28;19921;-80
2024/02/20 02:42:27;;;;;;;;;;;7.90;99.90;;;;;;4963466;28;20390;-79
2024/02/20 02:44:55;;;;;;;;;;;7.80;99.90;;;;;;4934963;28;19942;-80
2024/02/20 02:47:23;;;;;;;;;;;7.80;99.90;;;;;;4964632;28;20343;-80
2024/02/20 02:49:50;;;;;;;;;;;7.90;99.90;;;;;;4958314;28;20013;-80
2024/02/20 02:52:21;;;;;;;;;;;7.90;99.90;;;;;;4955160;28;19957;-80
2024/02/20 02:54:53;;;;;;;;;;;7.80;99.90;;;;;;4955775;28;19924;-79
2024/02/20 02:57:21;;;;;;;;;;;7.90;99.90;;;;;;4960820;28;19956;-79
2024/02/20 02:59:49;;;;;;;;;;;7.90;99.90;;;;;;4976117;28;19897;-79
2024/02/20 03:02:19;;;;;;;;;;;7.80;99.90;;;;;;4972336;28;20319;-80
2024/02/20 03:04:48;;;;;;;;;;;7.80;99.90;;;;;;4957090;28;19928;-80
2024/02/20 03:07:34;;;;;;;;;;;;;;;;;;;;;
2024/02/20 03:10:00;;;;;;;;;;;7.80;99.90;;;;;;5013379;28;20388;-80
2024/02/20 03:12:31;;;;;;;;;;;7.70;99.90;;;;;;4978864;28;19922;-79
2024/02/20 03:14:57;;;;;;;;;;;7.70;99.90;;;;;;4974265;28;19917;-80
2024/02/20 03:17:25;;;;;;;;;;;7.70;99.90;;;;;;5007814;28;20045;-80
2024/02/20 03:19:56;;;;;;;;;;;7.60;99.90;;;;;;4992550;28;19917;-80
2024/02/20 03:22:22;;;;;;;;;;;7.70;99.90;;;;;;4993565;28;20442;-80
2024/02/20 03:24:52;;;;;;;;;;;7.70;99.90;;;;;;4991431;28;20246;-80
2024/02/20 03:27:23;;;;;;;;;;;7.60;99.90;;;;;;4991524;28;20379;-80
2024/02/20 03:29:52;;;;;;;;;;;7.70;99.90;;;;;;4989232;28;19991;-79
2024/02/20 03:32:22;;;;;;;;;;;7.70;99.90;;;;;;4972924;28;19936;-81
2024/02/20 03:34:48;;;;;;;;;;;7.70;99.90;;;;;;4989613;28;20304;-79
2024/02/20 03:37:24;;;;;;;;;;;7.60;99.90;;;;;;4992052;28;19921;-80
2024/02/20 03:39:50;;;;;;;;;;;7.50;99.90;;;;;;4971801;28;20377;-80
2024/02/20 03:42:18;;;;;;;;;;;7.70;99.90;;;;;;4991936;28;19913;-80
2024/02/20 03:44:45;;;;;;;;;;;7.70;99.90;;;;;;4985991;28;19918;-79
2024/02/20 03:47:19;;;;;;;;;;;7.70;99.90;;;;;;4968311;28;19928;-80
2024/02/20 03:49:47;;;;;;;;;;;7.70;99.90;;;;;;4963881;28;19924;-79
2024/02/20 03:52:17;;;;;;;;;;;7.70;99.90;;;;;;4977522;28;19996;-80
2024/02/20 03:54:45;;;;;;;;;;;7.70;99.90;;;;;;4993246;28;19917;-80
2024/02/20 03:57:13;;;;;;;;;;;7.70;99.90;;;;;;4991468;28;19913;-80
2024/02/20 03:59:39;;;;;;;;;;;7.70;99.90;;;;;;4976745;28;19913;-80
2024/02/20 04:02:06;;;;;;;;;;;7.70;99.90;;;;;;4976424;28;19948;-80
2024/02/20 04:04:42;;;;;;;;;;;;;;;;;;;;;
2024/02/20 04:07:11;;;;;;;;;;;7.70;99.90;;;;;;4971452;28;19930;-79
2024/02/20 04:09:37;;;;;;;;;;;7.70;99.90;;;;;;4953321;28;20315;-80
2024/02/20 04:12:04;;;;;;;;;;;7.80;99.90;;;;;;4950198;28;19941;-80
2024/02/20 04:14:32;;;;;;;;;;;7.70;99.90;;;;;;4956484;28;19914;-80
2024/02/20 04:17:07;;;;;;;;;;;7.70;99.90;;;;;;4967808;28;19914;-80
2024/02/20 04:19:36;;;;;;;;;;;7.70;99.90;;;;;;4966539;28;20342;-80
2024/02/20 04:22:09;;;;;;;;;;;7.60;99.90;;;;;;4952705;28;19921;-80
2024/02/20 04:24:35;;;;;;;;;;;7.70;99.90;;;;;;4967175;28;19925;-81
2024/02/20 04:27:03;;;;;;;;;;;7.70;99.90;;;;;;4948825;28;19922;-81
2024/02/20 04:29:32;;;;;;;;;;;7.70;99.90;;;;;;4952495;28;19914;-80
2024/02/20 04:32:00;;;;;;;;;;;7.60;99.90;;;;;;4955211;28;19973;-81
2024/02/20 04:34:29;;;;;;;;;;;7.60;99.90;;;;;;4971302;28;19972;-80
2024/02/20 04:36:57;;;;;;;;;;;7.70;99.90;;;;;;4954143;28;19918;-81
2024/02/20 04:39:23;;;;;;;;;;;7.70;99.90;;;;;;4934761;28;19965;-79
2024/02/20 04:41:52;;;;;;;;;;;7.70;99.90;;;;;;4951753;28;19962;-81
2024/02/20 04:44:21;;;;;;;;;;;7.70;99.90;;;;;;4987499;28;20294;-79
2024/02/20 04:46:49;;;;;;;;;;;7.70;99.90;;;;;;4986029;28;19918;-81
2024/02/20 04:49:18;;;;;;;;;;;7.60;99.90;;;;;;4963337;28;20013;-81
2024/02/20 04:51:44;;;;;;;;;;;7.60;99.90;;;;;;4970848;28;19904;-80
2024/02/20 04:54:10;;;;;;;;;;;7.80;99.90;;;;;;4973923;28;19914;-80
2024/02/20 04:56:36;;;;;;;;;;;7.70;99.90;;;;;;4973716;28;20033;-79
2024/02/20 04:59:04;;;;;;;;;;;7.60;99.90;;;;;;4956195;28;19918;-80
2024/02/20 05:01:30;;;;;;;;;;;7.60;99.90;;;;;;4976115;28;19922;-80
2024/02/20 05:03:59;;;;;;;;;;;7.70;99.90;;;;;;4955036;28;19922;-81
2024/02/20 05:06:25;;;;;;;;;;;7.60;99.90;;;;;;4952790;28;19981;-79
2024/02/20 05:08:54;;;;;;;;;;;7.60;99.90;;;;;;4953330;28;19972;-80
2024/02/20 05:11:23;;;;;;;;;;;7.60;99.90;;;;;;4967269;28;19933;-79
2024/02/20 05:13:51;;;;;;;;;;;7.60;99.90;;;;;;4984034;28;19929;-79
2024/02/20 05:16:18;;;;;;;;;;;7.60;99.90;;;;;;4976481;28;19917;-81
2024/02/20 05:18:46;;;;;;;;;;;7.60;99.90;;;;;;4972354;28;19924;-80
2024/02/20 05:21:38;;;;;;;;;;;7.50;99.90;;;;;;4969907;28;20000;-80
2024/02/20 05:24:10;;;;;;;;;;;7.50;99.90;;;;;;4951599;28;20413;-81
2024/02/20 05:26:39;;;;;;;;;;;7.60;99.90;;;;;;4939999;28;19953;-81
2024/02/20 05:29:05;;;;;;;;;;;7.50;99.90;;;;;;4980666;28;19925;-80
2024/02/20 05:31:31;;;;;;;;;;;7.50;99.90;;;;;;4983491;28;19910;-82
2024/02/20 05:33:58;;;;;;;;;;;7.50;99.90;;;;;;4964186;28;20337;-81
2024/02/20 05:36:29;;;;;;;;;;;7.50;99.90;;;;;;4983016;28;19925;-81
2024/02/20 05:38:59;;;;;;;;;;;7.40;99.90;;;;;;4982952;28;19925;-81
2024/02/20 05:41:29;;;;;;;;;;;7.30;99.90;;;;;;4984799;28;19902;-81
2024/02/20 05:43:57;;;;;;;;;;;7.40;99.90;;;;;;4983908;28;19901;-83
2024/02/20 05:46:28;;;;;;;;;;;7.30;99.90;;;;;;4999196;28;19910;-83
2024/02/20 05:48:57;;;;;;;;;;;7.30;99.90;;;;;;4986822;28;19925;-81
2024/02/20 05:51:25;;;;;;;;;;;7.30;99.90;;;;;;4984912;28;19904;-82
2024/02/20 05:53:59;;;;;;;;;;;7.30;99.90;;;;;;4965233;28;19921;-82
2024/02/20 05:56:45;;;;;;;;;;;7.20;99.90;;;;;;4993958;28;19913;-82
2024/02/20 05:59:11;;;;;;;;;;;7.20;99.90;;;;;;5001499;28;19908;-81
2024/02/20 06:01:39;;;;;;;;;;;7.20;99.90;;;;;;5009021;28;20234;-81
2024/02/20 06:04:05;;;;;;;;;;;7.20;99.90;;;;;;4997481;28;19925;-81
2024/02/20 06:06:31;;;;;;;;;;;7.20;99.90;;;;;;4997148;28;19930;-81
2024/02/20 06:08:59;;;;;;;;;;;7.20;99.90;;;;;;5017250;28;19925;-82
2024/02/20 06:11:28;;;;;;;;;;;7.30;99.90;;;;;;5000568;28;19917;-81
2024/02/20 06:14:13;;;;;;;;;;;7.30;99.90;;;;;;5001594;28;19985;-81
2024/02/20 06:16:44;;;;;;;;;;;7.30;99.90;;;;;;5002723;28;19925;-83
2024/02/20 06:19:11;;;;;;;;;;;7.30;99.90;;;;;;5002467;28;19909;-82
2024/02/20 06:21:40;;;;;;;;;;;7.30;99.90;;;;;;4996560;28;19918;-81
2024/02/20 06:24:15;;;;;;;;;;;7.30;99.90;;;;;;5359278;23;20258;-81
2024/02/20 06:26:44;;;;;;;;;;;7.20;99.90;;;;;;5032267;28;19932;-81
2024/02/20 06:29:16;;;;;;;;;;;7.30;99.90;;;;;;5018038;28;19997;-82
2024/02/20 06:31:43;;;;;;;;;;;7.20;99.90;;;;;;5006448;28;19925;-80
2024/02/20 06:34:09;;;;;;;;;;;7.20;99.90;;;;;;5040470;28;19935;-82
2024/02/20 06:36:35;;;;;;;;;;;7.20;99.90;;;;;;5021098;28;19928;-81
2024/02/20 06:39:05;;;;;;;;;;;7.20;99.90;;;;;;5039903;28;19989;-82
2024/02/20 06:41:39;;;;;;;;;;;7.20;99.90;;;;;;5018406;28;19928;-82
2024/02/20 06:44:05;;;;;;;;;;;7.20;99.90;;;;;;4999786;28;19963;-80
2024/02/20 06:46:34;;;;;;;;;;;7.20;99.90;;;;;;5016279;28;19926;-80
2024/02/20 06:49:04;;;;;;;;;;;7.20;99.90;;;;;;4986825;28;19925;-81
2024/02/20 06:51:30;;;;;;;;;;;7.20;99.90;;;;;;4996581;28;20007;-82
2024/02/20 06:53:57;;;;;;;;;;;7.20;99.90;;;;;;5006110;28;19925;-81
2024/02/20 06:56:23;;;;;;;;;;;7.30;99.90;;;;;;5003287;28;20001;-82
2024/02/20 06:58:55;;;;;;;;;;;7.20;99.90;;;;;;5038232;28;19901;-83
2024/02/20 07:01:21;;;;;;;;;;;7.20;99.90;;;;;;5019192;28;19928;-82
2024/02/20 07:03:48;;;;;;;;;;;7.30;99.90;;;;;;5020156;28;19926;-83
2024/02/20 07:06:15;;;;;;;;;;;7.30;99.90;;;;;;5002685;28;19909;-82
2024/02/20 07:08:48;;;;;;;;;;;7.30;99.90;;;;;;5000767;28;19909;-81
2024/02/20 07:11:15;;;;;;;;;;;7.20;99.90;;;;;;5002999;28;20265;-82
2024/02/20 07:13:41;;;;;;;;;;;7.20;99.90;;;;;;5039662;28;19965;-82
2024/02/20 07:16:07;;;;;;;;;;;7.30;99.90;;;;;;5002385;28;19948;-82
2024/02/20 07:18:35;;;;;;;;;;;7.30;99.90;;;;;;5056568;28;19901;-82
2024/02/20 07:21:05;;;;;;;;;;;7.30;99.90;;;;;;5023933;28;19908;-82
2024/02/20 07:23:33;;;;;;;;;;;7.30;99.90;;;;;;5009111;28;19901;-84
2024/02/20 07:26:02;;;;;;;;;;;7.40;99.90;;;;;;5041174;28;19973;-83
2024/02/20 07:28:38;;;;;;;;;;;7.40;99.90;;;;;;5037054;28;20384;-82
2024/02/20 07:31:20;;;;;;;;;;;7.40;99.90;;;;;;5005296;28;19902;-85
2024/02/20 07:34:00;;;;;;;;;;;;;;;;;;;;;
2024/02/20 07:36:39;;;;;;;;;;;7.40;99.90;;;;;;5047524;23;19972;-82
2024/02/20 07:39:06;;;;;;;;;;;7.40;99.90;;;;;;5007936;28;19902;-82
2024/02/20 07:41:34;;;;;;;;;;;7.40;99.90;;;;;;5023930;28;19926;-82
2024/02/20 07:44:23;;;;;;;;;;;7.30;99.90;;;;;;5023967;28;19924;-83
2024/02/20 07:47:09;;;;;;;;;;;7.40;99.90;;;;;;5035347;28;19956;-81
2024/02/20 07:49:35;;;;;;;;;;;7.40;99.90;;;;;;5036048;28;19901;-81
2024/02/20 07:52:04;;;;;;;;;;;7.30;99.90;;;;;;5031809;28;20400;-80
2024/02/20 07:54:31;;;;;;;;;;;7.30;99.90;;;;;;4996544;28;19921;-83
2024/02/20 07:56:58;;;;;;;;;;;7.40;99.90;;;;;;4987331;28;19909;-82
2024/02/20 07:59:28;;;;;;;;;;;7.40;99.90;;;;;;5019201;28;19933;-81
2024/02/20 08:02:24;;;;;;;;;;;7.40;99.90;;;;;;5025134;28;19902;-82
2024/02/20 08:04:52;;;;;;;;;;;7.30;99.90;;;;;;5023823;28;19902;-83
2024/02/20 08:07:20;;;;;;;;;;;7.30;99.90;;;;;;4990692;28;20001;-83
2024/02/20 08:09:47;;;;;;;;;;;7.40;99.90;;;;;;4998968;28;19909;-81
2024/02/20 08:12:13;;;;;;;;;;;7.40;99.90;;;;;;4991308;28;19922;-81
2024/02/20 08:14:39;;;;;;;;;;;7.40;99.90;;;;;;4984960;28;19926;-81
2024/02/20 08:17:05;;;;;;;;;;;7.40;99.90;;;;;;4973640;28;19921;-81
2024/02/20 08:19:31;;;;;;;;;;;7.40;99.90;;;;;;5011162;28;19918;-82
2024/02/20 08:21:56;;;;;;;;;;;7.40;99.90;;;;;;5005890;28;19985;-81
2024/02/20 08:24:22;;;;;;;;;;;7.40;99.90;;;;;;4973629;28;19913;-82
2024/02/20 08:26:49;;;;;;;;;;;7.40;99.90;;;;;;4996051;28;19976;-81
2024/02/20 08:29:15;;;;;;;;;;;7.40;99.90;;;;;;4987981;28;19917;-81
2024/02/20 08:31:42;;;;;;;;;;;7.40;99.90;;;;;;4975917;28;19996;-82
2024/02/20 08:34:08;;;;;;;;;;;7.30;99.90;;;;;;4977236;28;19906;-81
2024/02/20 08:36:33;;;;;;;;;;;7.30;99.90;;;;;;4982111;28;19948;-81
2024/02/20 08:38:59;;;;;;;;;;;7.30;99.90;;;;;;4987922;28;19920;-81
2024/02/20 08:41:25;;;;;;;;;;;7.30;99.90;;;;;;4968621;28;19945;-81
2024/02/20 08:43:52;;;;;;;;;;;7.30;99.90;;;;;;4943879;28;19919;-81
2024/02/20 08:46:19;;;;;;;;;;;7.40;99.90;;;;;;4966311;28;19997;-81
2024/02/20 08:48:45;;;;;;;;;;;7.40;99.90;;;;;;4956628;28;20262;-81
2024/02/20 08:51:15;;;;;;;;;;;7.40;99.90;;;;;;4958176;28;19969;-82
2024/02/20 08:53:41;;;;;;;;;;;7.40;99.90;;;;;;4965151;28;19914;-81
2024/02/20 08:56:07;;;;;;;;;;;7.50;99.90;;;;;;4962073;28;19918;-81
2024/02/20 08:58:34;;;;;;;;;;;7.50;99.90;;;;;;4963764;28;19922;-81
2024/02/20 09:01:03;;;;;;;;;;;7.60;99.90;;;;;;4987538;28;19946;-81
2024/02/20 09:03:32;;;;;;;;;;;7.60;99.90;;;;;;4960861;28;19903;-81
2024/02/20 09:05:58;;;;;;;;;;;7.70;99.90;;;;;;4975846;28;19933;-81
2024/02/20 09:08:25;;;;;;;;;;;7.60;99.90;;;;;;4959296;28;20334;-81
2024/02/20 09:10:50;;;;;;;;;;;7.60;99.90;;;;;;4991652;28;20344;-81
2024/02/20 09:13:17;;;;;;;;;;;7.70;99.90;;;;;;4987366;28;19937;-81
2024/02/20 09:15:44;;;;;;;;;;;7.70;99.90;;;;;;4975146;28;19925;-81
2024/02/20 09:18:10;;;;;;;;;;;7.70;99.90;;;;;;4990374;28;19922;-81
2024/02/20 09:20:38;;;;;;;;;;;7.70;99.90;;;;;;4956004;28;19985;-81
2024/02/20 09:23:04;;;;;;;;;;;7.70;99.90;;;;;;4980177;28;19918;-80
2024/02/20 09:25:30;;;;;;;;;;;7.70;99.90;;;;;;4976750;28;19914;-81
2024/02/20 09:27:55;;;;;;;;;;;7.70;99.90;;;;;;4967158;28;19949;-81
2024/02/20 09:30:21;;;;;;;;;;;7.70;99.90;;;;;;4954849;28;19952;-81
2024/02/20 09:32:47;;;;;;;;;;;7.70;99.90;;;;;;4975632;28;19919;-81
2024/02/20 09:35:14;;;;;;;;;;;7.70;99.90;;;;;;4979023;28;19932;-81
2024/02/20 09:37:40;;;;;;;;;;;7.70;99.90;;;;;;4980206;28;19928;-81
2024/02/20 09:40:06;;;;;;;;;;;7.70;99.90;;;;;;4964912;28;19945;-83
2024/02/20 09:42:35;;;;;;;;;;;7.80;99.90;;;;;;4968520;28;19917;-82
2024/02/20 09:45:01;;;;;;;;;;;7.80;99.90;;;;;;4975920;28;20327;-82
2024/02/20 09:47:29;;;;;;;;;;;7.80;99.90;;;;;;4996987;28;19937;-81
2024/02/20 09:49:55;;;;;;;;;;;7.90;99.90;;;;;;5010645;28;19969;-81
2024/02/20 09:52:24;;;;;;;;;;;7.90;99.90;;;;;;4994773;28;19925;-82
2024/02/20 09:54:50;;;;;;;;;;;7.90;99.90;;;;;;4990186;28;20243;-81
2024/02/20 09:57:19;;;;;;;;;;;8.00;99.90;;;;;;4960803;28;19922;-81
2024/02/20 09:59:44;;;;;;;;;;;8.00;99.90;;;;;;4968861;28;19918;-81
2024/02/20 10:02:17;;;;;;;;;;;8.00;99.90;;;;;;4969570;28;19924;-80
2024/02/20 10:04:43;;;;;;;;;;;8.10;99.90;;;;;;4958712;28;19910;-82
2024/02/20 10:07:08;;;;;;;;;;;8.10;99.90;;;;;;4959667;28;20397;-82
2024/02/20 10:09:34;;;;;;;;;;;8.20;99.90;;;;;;4984552;28;19929;-80
2024/02/20 10:12:00;;;;;;;;;;;8.20;99.90;;;;;;4944713;28;19914;-81
2024/02/20 10:14:27;;;;;;;;;;;8.30;99.90;;;;;;4987566;28;20008;-81
2024/02/20 10:17:03;;;;;;;;;;;8.40;99.90;;;;;;4976963;28;19933;-81
2024/02/20 10:19:28;;;;;;;;;;;8.40;99.90;;;;;;4997769;28;19918;-81
2024/02/20 10:21:54;;;;;;;;;;;8.40;99.90;;;;;;4977538;28;19922;-81
2024/02/20 10:24:20;;;;;;;;;;;8.50;99.90;;;;;;4961008;28;20363;-81
2024/02/20 10:26:46;;;;;;;;;;;8.60;99.90;;;;;;4998589;28;19910;-81
2024/02/20 10:29:13;;;;;;;;;;;8.60;99.90;;;;;;4968415;28;20284;-81
2024/02/20 10:31:39;;;;;;;;;;;8.70;99.90;;;;;;4973848;28;19922;-81
2024/02/20 10:34:04;;;;;;;;;;;8.70;99.90;;;;;;4970196;28;20306;-81
2024/02/20 10:36:30;;;;;;;;;;;8.80;99.90;;;;;;4989638;28;19937;-82
2024/02/20 10:39:05;;;;;;;;;;;9.00;99.90;;;;;;4995047;28;19972;-82
2024/02/20 10:41:31;;;;;;;;;;;9.00;99.90;;;;;;5010689;28;19918;-82
2024/02/20 10:43:57;;;;;;;;;;;9.00;99.90;;;;;;4981246;28;19924;-82
2024/02/20 10:46:26;;;;;;;;;;;9.00;99.90;;;;;;4983100;28;19937;-82
2024/02/20 10:48:52;;;;;;;;;;;9.10;99.90;;;;;;4995964;28;19918;-83
2024/02/20 10:51:18;;;;;;;;;;;9.10;99.90;;;;;;4993375;28;19917;-82
2024/02/20 10:53:43;;;;;;;;;;;9.10;99.90;;;;;;4994371;28;19932;-82
2024/02/20 10:56:11;;;;;;;;;;;9.10;99.90;;;;;;4991577;28;19918;-82
2024/02/20 10:58:42;;;;;;;;;;;9.10;99.90;;;;;;4996203;28;19925;-82
2024/02/20 11:01:08;;;;;;;;;;;9.10;99.90;;;;;;4994380;28;19901;-81
2024/02/20 11:03:34;;;;;;;;;;;9.10;99.90;;;;;;4975853;28;19913;-81
2024/02/20 11:05:59;;;;;;;;;;;9.30;99.90;;;;;;4967218;28;19926;-82
2024/02/20 11:08:27;;;;;;;;;;;9.60;99.90;;;;;;4977532;28;19914;-82
2024/02/20 11:10:53;;;;;;;;;;;9.50;99.90;;;;;;4979909;28;19914;-83
2024/02/20 11:13:26;;;;;;;;;;;9.50;99.90;;;;;;4991025;28;19940;-80
2024/02/20 11:15:53;;;;;;;;;;;9.50;99.90;;;;;;5007185;28;19917;-81
2024/02/20 11:18:20;;;;;;;;;;;9.40;99.90;;;;;;4983312;28;20302;-81
2024/02/20 11:20:46;;;;;;;;;;;9.40;99.90;;;;;;4992464;28;19967;-81
2024/02/20 11:23:12;;;;;;;;;;;9.40;99.90;;;;;;4993142;28;19925;-81
2024/02/20 11:25:38;;;;;;;;;;;9.40;99.90;;;;;;4998063;28;19921;-81
2024/02/20 11:28:13;;;;;;;;;;;9.30;99.90;;;;;;5001872;28;19933;-82
2024/02/20 11:30:40;;;;;;;;;;;9.30;99.90;;;;;;4995424;28;19901;-81
2024/02/20 11:33:12;;;;;;;;;;;9.40;99.90;;;;;;5015413;28;19945;-81
2024/02/20 11:35:38;;;;;;;;;;;9.80;99.90;;;;;;4966158;28;20274;-82
2024/02/20 11:38:06;;;;;;;;;;;10.00;99.90;;;;;;4962053;28;20052;-81
2024/02/20 11:40:32;;;;;;;;;;;10.50;99.90;;;;;;4977731;28;19975;-81
2024/02/20 11:42:59;;;;;;;;;;;10.60;99.90;;;;;;4991602;28;19918;-82
2024/02/20 11:45:26;;;;;;;;;;;10.70;99.90;;;;;;4958700;28;19922;-81
2024/02/20 11:48:05;;;;;;;;;;;11.00;99.90;;;;;;5005903;28;19933;-82
2024/02/20 11:50:37;;;;;;;;;;;11.10;99.90;;;;;;4973344;28;19925;-80
2024/02/20 11:53:04;;;;;;;;;;;11.10;99.90;;;;;;5006200;28;19918;-81
2024/02/20 11:55:32;;;;;;;;;;;10.80;99.90;;;;;;5001901;28;19925;-81
2024/02/20 11:58:01;;;;;;;;;;;10.80;99.90;;;;;;4967233;28;19921;-81
2024/02/20 12:00:32;;;;;;;;;;;10.70;99.90;;;;;;4963850;28;19929;-82
2024/02/20 12:02:59;;;;;;;;;;;10.50;99.90;;;;;;4995740;28;19918;-81
2024/02/20 12:05:28;;;;;;;;;;;10.40;99.90;;;;;;4977225;28;20000;-81
2024/02/20 12:07:54;;;;;;;;;;;10.30;99.90;;;;;;4983551;28;19930;-81
2024/02/20 12:10:24;;;;;;;;;;;10.10;99.90;;;;;;4978042;28;19937;-81
2024/02/20 12:12:52;;;;;;;;;;;10.00;99.90;;;;;;4953683;28;19942;-81
2024/02/20 12:15:18;;;;;;;;;;;10.00;99.90;;;;;;4978633;28;20709;-82
2024/02/20 12:17:44;;;;;;;;;;;10.10;99.90;;;;;;4959183;28;19898;-81
2024/02/20 12:20:11;;;;;;;;;;;10.00;99.90;;;;;;4974602;28;19929;-81
2024/02/20 12:22:43;;;;;;;;;;;10.00;99.90;;;;;;4967059;28;19994;-82
2024/02/20 12:25:10;;;;;;;;;;;10.10;99.90;;;;;;4957176;28;19975;-81
2024/02/20 12:27:35;;;;;;;;;;;10.00;99.90;;;;;;4954436;28;19926;-81
2024/02/20 12:30:03;;;;;;;;;;;10.00;99.90;;;;;;4972046;28;20021;-81
2024/02/20 12:32:28;;;;;;;;;;;10.00;99.90;;;;;;4983332;28;19902;-83
2024/02/20 12:34:55;;;;;;;;;;;10.00;99.90;;;;;;5001647;28;20231;-83
2024/02/20 12:37:22;;;;;;;;;;;10.00;99.90;;;;;;5000730;28;19908;-82
2024/02/20 12:39:48;;;;;;;;;;;10.00;99.90;;;;;;5030377;28;20338;-81
2024/02/20 12:42:15;;;;;;;;;;;9.90;99.90;;;;;;4980533;28;19932;-81
2024/02/20 12:44:40;;;;;;;;;;;9.80;99.90;;;;;;4987341;28;19957;-81
2024/02/20 12:47:06;;;;;;;;;;;9.80;99.90;;;;;;5007478;28;19906;-80
2024/02/20 12:49:32;;;;;;;;;;;9.70;99.90;;;;;;5021068;28;19984;-81
2024/02/20 12:51:58;;;;;;;;;;;9.70;99.90;;;;;;4983970;28;19917;-81
2024/02/20 12:54:24;;;;;;;;;;;9.70;99.90;;;;;;5007163;28;19918;-83
2024/02/20 12:56:50;;;;;;;;;;;9.70;99.90;;;;;;4988122;28;20322;-81
2024/02/20 12:59:17;;;;;;;;;;;9.60;99.90;;;;;;4986136;28;19914;-82
2024/02/20 13:01:46;;;;;;;;;;;9.70;99.90;;;;;;4979066;28;19966;-81
2024/02/20 13:04:13;;;;;;;;;;;9.70;99.90;;;;;;4994802;28;19918;-81
2024/02/20 13:06:39;;;;;;;;;;;9.70;99.90;;;;;;5009594;28;19925;-81
2024/02/20 13:09:05;;;;;;;;;;;9.70;99.90;;;;;;5009311;28;19913;-80
2024/02/20 13:11:30;;;;;;;;;;;9.70;99.90;;;;;;4975527;28;19968;-81
2024/02/20 13:13:56;;;;;;;;;;;9.60;99.90;;;;;;4997740;28;19918;-80
2024/02/20 13:16:22;;;;;;;;;;;9.60;99.90;;;;;;4965480;28;19914;-81
2024/02/20 13:18:48;;;;;;;;;;;9.60;99.90;;;;;;4979185;28;20007;-81
2024/02/20 13:21:14;;;;;;;;;;;9.60;99.90;;;;;;5014142;28;19941;-81
2024/02/20 13:23:43;;;;;;;;;;;9.60;99.90;;;;;;4979885;28;20025;-81
2024/02/20 13:26:08;;;;;;;;;;;9.60;99.90;;;;;;4990801;28;19925;-81
2024/02/20 13:28:34;;;;;;;;;;;9.60;99.90;;;;;;4992831;28;19924;-81
2024/02/20 13:31:00;;;;;;;;;;;9.50;99.90;;;;;;4991712;28;19918;-81
2024/02/20 13:33:26;;;;;;;;;;;9.50;99.90;;;;;;4966914;28;19913;-82
2024/02/20 13:35:52;;;;;;;;;;;9.60;99.90;;;;;;4981811;28;19961;-81
2024/02/20 13:38:17;;;;;;;;;;;9.50;99.90;;;;;;4953722;28;20508;-79
2024/02/20 13:40:43;;;;;;;;;;;9.50;99.90;;;;;;4948397;28;19973;-80
2024/02/20 13:43:09;;;;;;;;;;;9.50;99.90;;;;;;4952820;28;20350;-80
2024/02/20 13:45:49;;;;;;;;;;;9.50;99.90;;;;;;4972513;28;19969;-81
2024/02/20 13:48:21;;;;;;;;;;;9.50;99.90;;;;;;4970401;28;20040;-79
2024/02/20 13:50:47;;;;;;;;;;;9.50;99.90;;;;;;4986358;28;19917;-80
2024/02/20 13:53:17;;;;;;;;;;;9.50;99.90;;;;;;4968856;28;19914;-79
2024/02/20 13:55:46;;;;;;;;;;;9.60;99.90;;;;;;4962580;28;20014;-80
2024/02/20 13:58:12;;;;;;;;;;;9.70;99.90;;;;;;4976577;28;19942;-80
2024/02/20 14:00:42;;;;;;;;;;;9.70;99.90;;;;;;4973859;28;20662;-80
2024/02/20 14:03:11;;;;;;;;;;;9.90;99.90;;;;;;4950491;28;20005;-80
2024/02/20 14:05:40;;;;;;;;;;;10.10;99.90;;;;;;4966177;28;19913;-80
2024/02/20 14:08:08;;;;;;;;;;;10.00;99.90;;;;;;4967492;28;19985;-80
2024/02/20 14:10:34;;;;;;;;;;;10.10;99.90;;;;;;4966912;28;20565;-81
2024/02/20 14:13:04;;;;;;;;;;;10.10;99.90;;;;;;4952684;28;19914;-80
2024/02/20 14:15:30;;;;;;;;;;;10.20;99.90;;;;;;4965254;28;20093;-80
2024/02/20 14:18:01;;;;;;;;;;;10.20;99.90;;;;;;4982356;28;19917;-80
2024/02/20 14:20:30;;;;;;;;;;;10.30;99.90;;;;;;4978739;28;19925;-81
2024/02/20 14:22:56;;;;;;;;;;;10.30;99.90;;;;;;4969624;28;19961;-80
2024/02/20 14:25:24;;;;;;;;;;;10.00;99.90;;;;;;4967221;28;19914;-80
2024/02/20 14:27:49;;;;;;;;;;;10.00;99.90;;;;;;4971034;28;19933;-81
2024/02/20 14:30:19;;;;;;;;;;;9.80;99.90;;;;;;4983833;28;19917;-81
2024/02/20 14:32:46;;;;;;;;;;;9.70;99.90;;;;;;4989684;28;19920;-81
2024/02/20 14:35:15;;;;;;;;;;;9.70;99.90;;;;;;4975591;28;19924;-81
2024/02/20 14:37:43;;;;;;;;;;;9.70;99.90;;;;;;4970870;28;19913;-81
2024/02/20 14:40:09;;;;;;;;;;;9.70;99.90;;;;;;4966826;28;19914;-81
2024/02/20 14:42:37;;;;;;;;;;;9.60;99.90;;;;;;4964540;28;20354;-80